sensor_id;sensor_type;location;lat;lon;timestamp;P1;durP1;ratioP1;P2;durP2;ratioP2
48873;SDS011;35220;46.204;5.220;2022-08-24T00:00:12;4.45;;;1.10;;
48873;SDS011;35220;46.204;5.220;2022-08-24T00:10:20;5.32;;;1.45;;
48873;SDS011;35220;46.204;5.220;2022-08-24T00:15:21;2.03;;;1.38;;
48873;SDS011;35220;46.204;5.220;2022-08-24T00:20:21;2.13;;;1.42;;
48873;SDS011;35220;46.204;5.220;2022-08-24T00:25:22;8.25;;;1.70;;
48873;SDS011;35220;46.204;5.220;2022-08-24T00:30:23;3.13;;;1.50;;
48873;SDS011;35220;46.204;5.220;2022-08-24T00:35:23;4.07;;;2.00;;
48873;SDS011;35220;46.204;5.220;2022-08-24T00:40:26;4.53;;;1.50;;
48873;SDS011;35220;46.204;5.220;2022-08-24T00:45:33;2.92;;;1.45;;
48873;SDS011;35220;46.204;5.220;2022-08-24T00:50:43;2.33;;;1.55;;
48873;SDS011;35220;46.204;5.220;2022-08-24T00:55:50;3.47;;;1.60;;
48873;SDS011;35220;46.204;5.220;2022-08-24T01:00:57;5.70;;;1.70;;
48873;SDS011;35220;46.204;5.220;2022-08-24T01:06:02;2.97;;;1.70;;
48873;SDS011;35220;46.204;5.220;2022-08-24T01:11:06;4.88;;;1.60;;
48873;SDS011;35220;46.204;5.220;2022-08-24T01:16:13;3.85;;;1.48;;
48873;SDS011;35220;46.204;5.220;2022-08-24T01:21:37;3.75;;;1.60;;
48873;SDS011;35220;46.204;5.220;2022-08-24T01:26:47;4.53;;;1.55;;
48873;SDS011;35220;46.204;5.220;2022-08-24T01:31:49;3.83;;;1.70;;
48873;SDS011;35220;46.204;5.220;2022-08-24T01:36:51;3.33;;;1.45;;
48873;SDS011;35220;46.204;5.220;2022-08-24T01:41:55;2.75;;;1.52;;
48873;SDS011;35220;46.204;5.220;2022-08-24T01:46:55;2.38;;;1.40;;
48873;SDS011;35220;46.204;5.220;2022-08-24T01:51:56;3.67;;;1.38;;
48873;SDS011;35220;46.204;5.220;2022-08-24T01:56:57;3.22;;;1.30;;
48873;SDS011;35220;46.204;5.220;2022-08-24T02:02:08;2.55;;;1.25;;
48873;SDS011;35220;46.204;5.220;2022-08-24T02:07:18;5.10;;;1.50;;
48873;SDS011;35220;46.204;5.220;2022-08-24T02:12:19;3.00;;;1.63;;
48873;SDS011;35220;46.204;5.220;2022-08-24T02:17:20;1.85;;;1.35;;
48873;SDS011;35220;46.204;5.220;2022-08-24T02:22:21;5.25;;;1.40;;
48873;SDS011;35220;46.204;5.220;2022-08-24T02:27:21;4.70;;;1.50;;
48873;SDS011;35220;46.204;5.220;2022-08-24T02:32:21;5.43;;;1.90;;
48873;SDS011;35220;46.204;5.220;2022-08-24T02:37:22;3.33;;;1.30;;
48873;SDS011;35220;46.204;5.220;2022-08-24T02:42:22;2.38;;;1.30;;
48873;SDS011;35220;46.204;5.220;2022-08-24T02:47:22;4.33;;;1.30;;
48873;SDS011;35220;46.204;5.220;2022-08-24T02:52:23;2.30;;;1.60;;
48873;SDS011;35220;46.204;5.220;2022-08-24T02:57:23;2.72;;;1.38;;
48873;SDS011;35220;46.204;5.220;2022-08-24T03:02:24;4.07;;;1.20;;
48873;SDS011;35220;46.204;5.220;2022-08-24T03:07:24;2.03;;;1.25;;
48873;SDS011;35220;46.204;5.220;2022-08-24T03:12:24;2.88;;;1.60;;
48873;SDS011;35220;46.204;5.220;2022-08-24T03:17:25;3.22;;;1.40;;
48873;SDS011;35220;46.204;5.220;2022-08-24T03:22:26;3.07;;;1.47;;
48873;SDS011;35220;46.204;5.220;2022-08-24T03:27:26;3.75;;;1.95;;
48873;SDS011;35220;46.204;5.220;2022-08-24T03:32:27;2.20;;;1.45;;
48873;SDS011;35220;46.204;5.220;2022-08-24T03:37:27;2.35;;;1.80;;
48873;SDS011;35220;46.204;5.220;2022-08-24T03:42:28;5.32;;;1.90;;
48873;SDS011;35220;46.204;5.220;2022-08-24T03:47:28;2.63;;;2.10;;
48873;SDS011;35220;46.204;5.220;2022-08-24T03:52:28;3.83;;;1.57;;
48873;SDS011;35220;46.204;5.220;2022-08-24T03:57:29;3.30;;;1.60;;
48873;SDS011;35220;46.204;5.220;2022-08-24T04:02:29;2.42;;;1.38;;
48873;SDS011;35220;46.204;5.220;2022-08-24T04:07:30;1.83;;;1.50;;
48873;SDS011;35220;46.204;5.220;2022-08-24T04:12:30;3.57;;;1.73;;
48873;SDS011;35220;46.204;5.220;2022-08-24T04:17:30;5.23;;;1.77;;
48873;SDS011;35220;46.204;5.220;2022-08-24T04:22:31;2.17;;;1.48;;
48873;SDS011;35220;46.204;5.220;2022-08-24T04:27:33;4.45;;;1.75;;
48873;SDS011;35220;46.204;5.220;2022-08-24T04:32:33;5.63;;;1.80;;
48873;SDS011;35220;46.204;5.220;2022-08-24T04:37:34;3.70;;;1.80;;
48873;SDS011;35220;46.204;5.220;2022-08-24T04:42:35;2.92;;;1.88;;
48873;SDS011;35220;46.204;5.220;2022-08-24T04:47:36;6.40;;;2.20;;
48873;SDS011;35220;46.204;5.220;2022-08-24T04:52:36;4.73;;;1.97;;
48873;SDS011;35220;46.204;5.220;2022-08-24T04:57:37;3.93;;;2.07;;
48873;SDS011;35220;46.204;5.220;2022-08-24T05:02:37;4.32;;;1.90;;
48873;SDS011;35220;46.204;5.220;2022-08-24T05:07:40;3.92;;;1.80;;
48873;SDS011;35220;46.204;5.220;2022-08-24T05:12:41;5.15;;;1.95;;
48873;SDS011;35220;46.204;5.220;2022-08-24T05:17:42;4.53;;;2.05;;
48873;SDS011;35220;46.204;5.220;2022-08-24T05:22:42;5.50;;;1.98;;
48873;SDS011;35220;46.204;5.220;2022-08-24T05:27:44;4.97;;;2.13;;
48873;SDS011;35220;46.204;5.220;2022-08-24T05:32:44;5.63;;;1.80;;
48873;SDS011;35220;46.204;5.220;2022-08-24T05:37:45;4.22;;;2.13;;
48873;SDS011;35220;46.204;5.220;2022-08-24T05:42:45;5.40;;;2.13;;
48873;SDS011;35220;46.204;5.220;2022-08-24T05:47:45;4.85;;;1.80;;
48873;SDS011;35220;46.204;5.220;2022-08-24T05:52:46;3.88;;;2.00;;
48873;SDS011;35220;46.204;5.220;2022-08-24T05:57:46;7.20;;;1.95;;
48873;SDS011;35220;46.204;5.220;2022-08-24T06:02:49;3.58;;;1.88;;
48873;SDS011;35220;46.204;5.220;2022-08-24T06:07:51;3.88;;;1.73;;
48873;SDS011;35220;46.204;5.220;2022-08-24T06:12:52;4.95;;;2.35;;
48873;SDS011;35220;46.204;5.220;2022-08-24T06:17:53;2.97;;;1.90;;
48873;SDS011;35220;46.204;5.220;2022-08-24T06:22:53;5.57;;;2.10;;
48873;SDS011;35220;46.204;5.220;2022-08-24T06:27:54;4.45;;;1.95;;
48873;SDS011;35220;46.204;5.220;2022-08-24T06:32:57;2.53;;;1.70;;
48873;SDS011;35220;46.204;5.220;2022-08-24T06:37:58;4.00;;;2.20;;
48873;SDS011;35220;46.204;5.220;2022-08-24T06:43:01;5.57;;;2.33;;
48873;SDS011;35220;46.204;5.220;2022-08-24T06:48:03;4.15;;;1.63;;
48873;SDS011;35220;46.204;5.220;2022-08-24T06:53:03;3.40;;;1.88;;
48873;SDS011;35220;46.204;5.220;2022-08-24T06:58:04;5.53;;;1.80;;
48873;SDS011;35220;46.204;5.220;2022-08-24T07:03:04;7.90;;;2.07;;
48873;SDS011;35220;46.204;5.220;2022-08-24T07:08:05;4.32;;;2.35;;
48873;SDS011;35220;46.204;5.220;2022-08-24T07:13:06;5.05;;;2.38;;
48873;SDS011;35220;46.204;5.220;2022-08-24T07:18:15;5.13;;;2.15;;
48873;SDS011;35220;46.204;5.220;2022-08-24T07:23:17;3.10;;;2.08;;
48873;SDS011;35220;46.204;5.220;2022-08-24T07:28:18;6.53;;;2.30;;
48873;SDS011;35220;46.204;5.220;2022-08-24T07:33:18;4.60;;;2.25;;
48873;SDS011;35220;46.204;5.220;2022-08-24T07:38:19;3.53;;;2.30;;
48873;SDS011;35220;46.204;5.220;2022-08-24T07:43:20;12.15;;;2.33;;
48873;SDS011;35220;46.204;5.220;2022-08-24T07:48:20;4.70;;;2.30;;
48873;SDS011;35220;46.204;5.220;2022-08-24T07:53:20;5.00;;;2.33;;
48873;SDS011;35220;46.204;5.220;2022-08-24T07:58:21;3.63;;;2.23;;
48873;SDS011;35220;46.204;5.220;2022-08-24T08:03:22;9.05;;;2.40;;
48873;SDS011;35220;46.204;5.220;2022-08-24T08:08:25;2.60;;;2.10;;
48873;SDS011;35220;46.204;5.220;2022-08-24T08:13:26;4.22;;;2.50;;
48873;SDS011;35220;46.204;5.220;2022-08-24T08:18:28;4.50;;;2.05;;
48873;SDS011;35220;46.204;5.220;2022-08-24T08:23:29;3.33;;;1.98;;
48873;SDS011;35220;46.204;5.220;2022-08-24T08:28:48;4.10;;;2.13;;
48873;SDS011;35220;46.204;5.220;2022-08-24T08:33:49;5.57;;;3.00;;
48873;SDS011;35220;46.204;5.220;2022-08-24T08:38:49;6.23;;;2.60;;
48873;SDS011;35220;46.204;5.220;2022-08-24T08:43:54;5.00;;;2.47;;
48873;SDS011;35220;46.204;5.220;2022-08-24T09:26:52;4.50;;;2.63;;
48873;SDS011;35220;46.204;5.220;2022-08-24T09:37:57;3.80;;;2.13;;
48873;SDS011;35220;46.204;5.220;2022-08-24T09:48:46;6.57;;;2.70;;
48873;SDS011;35220;46.204;5.220;2022-08-24T10:04:45;3.40;;;2.30;;
48873;SDS011;35220;46.204;5.220;2022-08-24T10:15:22;4.00;;;2.17;;
48873;SDS011;35220;46.204;5.220;2022-08-24T10:36:30;3.40;;;2.10;;
48873;SDS011;35220;46.204;5.220;2022-08-24T10:46:58;6.78;;;2.28;;
48873;SDS011;35220;46.204;5.220;2022-08-24T11:03:22;3.43;;;2.30;;
48873;SDS011;35220;46.204;5.220;2022-08-24T11:08:26;3.53;;;2.00;;
48873;SDS011;35220;46.204;5.220;2022-08-24T11:13:29;4.85;;;2.20;;
48873;SDS011;35220;46.204;5.220;2022-08-24T11:18:49;2.87;;;1.90;;
48873;SDS011;35220;46.204;5.220;2022-08-24T11:23:54;3.50;;;2.10;;
48873;SDS011;35220;46.204;5.220;2022-08-24T11:29:04;4.60;;;2.17;;
48873;SDS011;35220;46.204;5.220;2022-08-24T11:34:06;4.00;;;2.00;;
48873;SDS011;35220;46.204;5.220;2022-08-24T11:55:06;2.97;;;2.00;;
48873;SDS011;35220;46.204;5.220;2022-08-24T12:00:15;3.05;;;1.88;;
48873;SDS011;35220;46.204;5.220;2022-08-24T12:05:27;5.18;;;1.92;;
48873;SDS011;35220;46.204;5.220;2022-08-24T12:21:07;2.50;;;1.90;;
48873;SDS011;35220;46.204;5.220;2022-08-24T12:31:28;5.15;;;2.10;;
48873;SDS011;35220;46.204;5.220;2022-08-24T12:36:35;3.07;;;1.70;;
48873;SDS011;35220;46.204;5.220;2022-08-24T12:41:53;6.35;;;2.10;;
48873;SDS011;35220;46.204;5.220;2022-08-24T12:46:59;5.78;;;2.13;;
48873;SDS011;35220;46.204;5.220;2022-08-24T12:52:02;2.53;;;1.70;;
48873;SDS011;35220;46.204;5.220;2022-08-24T13:02:39;2.53;;;1.90;;
48873;SDS011;35220;46.204;5.220;2022-08-24T13:07:45;4.05;;;1.75;;
48873;SDS011;35220;46.204;5.220;2022-08-24T13:13:07;3.58;;;2.05;;
48873;SDS011;35220;46.204;5.220;2022-08-24T13:38:48;3.00;;;1.85;;
48873;SDS011;35220;46.204;5.220;2022-08-24T13:44:21;2.35;;;1.80;;
48873;SDS011;35220;46.204;5.220;2022-08-24T13:49:49;3.08;;;1.63;;
48873;SDS011;35220;46.204;5.220;2022-08-24T14:00:14;2.73;;;1.80;;
48873;SDS011;35220;46.204;5.220;2022-08-24T14:05:43;3.40;;;1.90;;
48873;SDS011;35220;46.204;5.220;2022-08-24T14:10:58;2.35;;;1.65;;
48873;SDS011;35220;46.204;5.220;2022-08-24T14:16:28;3.35;;;2.00;;
48873;SDS011;35220;46.204;5.220;2022-08-24T14:27:13;3.60;;;1.90;;
48873;SDS011;35220;46.204;5.220;2022-08-24T14:32:38;2.47;;;1.85;;
48873;SDS011;35220;46.204;5.220;2022-08-24T14:37:49;5.30;;;2.00;;
48873;SDS011;35220;46.204;5.220;2022-08-24T14:42:59;5.75;;;2.10;;
48873;SDS011;35220;46.204;5.220;2022-08-24T15:09:19;6.55;;;1.92;;
48873;SDS011;35220;46.204;5.220;2022-08-24T15:14:40;4.30;;;2.00;;
48873;SDS011;35220;46.204;5.220;2022-08-24T15:19:52;4.85;;;2.17;;
48873;SDS011;35220;46.204;5.220;2022-08-24T15:25:03;2.47;;;2.10;;
48873;SDS011;35220;46.204;5.220;2022-08-24T15:30:32;4.90;;;2.20;;
48873;SDS011;35220;46.204;5.220;2022-08-24T15:35:34;2.40;;;2.20;;
48873;SDS011;35220;46.204;5.220;2022-08-24T15:40:37;3.38;;;2.00;;
48873;SDS011;35220;46.204;5.220;2022-08-24T15:45:41;4.17;;;2.00;;
48873;SDS011;35220;46.204;5.220;2022-08-24T15:50:50;2.60;;;2.00;;
48873;SDS011;35220;46.204;5.220;2022-08-24T15:55:52;3.60;;;2.53;;
48873;SDS011;35220;46.204;5.220;2022-08-24T16:11:33;2.30;;;1.83;;
48873;SDS011;35220;46.204;5.220;2022-08-24T16:16:35;2.13;;;1.80;;
48873;SDS011;35220;46.204;5.220;2022-08-24T16:21:39;3.55;;;1.90;;
48873;SDS011;35220;46.204;5.220;2022-08-24T16:26:53;4.47;;;2.17;;
48873;SDS011;35220;46.204;5.220;2022-08-24T16:37:17;3.80;;;2.08;;
48873;SDS011;35220;46.204;5.220;2022-08-24T16:42:21;2.03;;;1.83;;
48873;SDS011;35220;46.204;5.220;2022-08-24T16:47:25;4.90;;;1.77;;
48873;SDS011;35220;46.204;5.220;2022-08-24T16:52:27;9.30;;;2.10;;
48873;SDS011;35220;46.204;5.220;2022-08-24T16:57:28;3.33;;;1.90;;
48873;SDS011;35220;46.204;5.220;2022-08-24T17:02:35;3.47;;;1.80;;
48873;SDS011;35220;46.204;5.220;2022-08-24T17:07:36;3.25;;;1.85;;
48873;SDS011;35220;46.204;5.220;2022-08-24T17:12:37;4.10;;;1.92;;
48873;SDS011;35220;46.204;5.220;2022-08-24T17:17:37;4.17;;;1.90;;
48873;SDS011;35220;46.204;5.220;2022-08-24T17:22:39;3.13;;;1.92;;
48873;SDS011;35220;46.204;5.220;2022-08-24T17:27:39;5.07;;;2.00;;
48873;SDS011;35220;46.204;5.220;2022-08-24T17:32:43;2.60;;;1.83;;
48873;SDS011;35220;46.204;5.220;2022-08-24T17:37:43;3.33;;;2.13;;
48873;SDS011;35220;46.204;5.220;2022-08-24T17:42:44;4.93;;;2.67;;
48873;SDS011;35220;46.204;5.220;2022-08-24T17:47:44;6.07;;;4.70;;
48873;SDS011;35220;46.204;5.220;2022-08-24T17:52:45;5.50;;;2.20;;
48873;SDS011;35220;46.204;5.220;2022-08-24T17:57:46;10.65;;;6.97;;
48873;SDS011;35220;46.204;5.220;2022-08-24T18:02:46;9.75;;;5.57;;
48873;SDS011;35220;46.204;5.220;2022-08-24T18:07:49;5.35;;;2.80;;
48873;SDS011;35220;46.204;5.220;2022-08-24T18:12:52;3.45;;;2.70;;
48873;SDS011;35220;46.204;5.220;2022-08-24T18:17:53;3.60;;;2.20;;
48873;SDS011;35220;46.204;5.220;2022-08-24T18:22:54;5.05;;;2.85;;
48873;SDS011;35220;46.204;5.220;2022-08-24T18:27:55;6.10;;;2.42;;
48873;SDS011;35220;46.204;5.220;2022-08-24T18:32:57;5.35;;;3.13;;
48873;SDS011;35220;46.204;5.220;2022-08-24T18:38:00;3.45;;;2.30;;
48873;SDS011;35220;46.204;5.220;2022-08-24T18:43:01;4.70;;;2.90;;
48873;SDS011;35220;46.204;5.220;2022-08-24T18:48:02;5.38;;;2.90;;
48873;SDS011;35220;46.204;5.220;2022-08-24T18:53:03;4.57;;;3.05;;
48873;SDS011;35220;46.204;5.220;2022-08-24T18:58:03;4.47;;;2.70;;
48873;SDS011;35220;46.204;5.220;2022-08-24T19:03:05;4.93;;;2.55;;
48873;SDS011;35220;46.204;5.220;2022-08-24T19:08:08;4.93;;;2.95;;
48873;SDS011;35220;46.204;5.220;2022-08-24T19:13:09;5.30;;;2.33;;
48873;SDS011;35220;46.204;5.220;2022-08-24T19:18:17;4.85;;;3.33;;
48873;SDS011;35220;46.204;5.220;2022-08-24T19:23:30;4.35;;;3.00;;
48873;SDS011;35220;46.204;5.220;2022-08-24T19:28:32;5.28;;;2.58;;
48873;SDS011;35220;46.204;5.220;2022-08-24T19:33:35;3.60;;;2.50;;
48873;SDS011;35220;46.204;5.220;2022-08-24T19:38:38;5.40;;;2.72;;
48873;SDS011;35220;46.204;5.220;2022-08-24T19:43:38;9.38;;;2.97;;
48873;SDS011;35220;46.204;5.220;2022-08-24T19:49:00;4.43;;;2.88;;
48873;SDS011;35220;46.204;5.220;2022-08-24T19:54:01;4.10;;;3.00;;
48873;SDS011;35220;46.204;5.220;2022-08-24T19:59:05;5.37;;;2.80;;
48873;SDS011;35220;46.204;5.220;2022-08-24T20:04:07;5.97;;;2.53;;
48873;SDS011;35220;46.204;5.220;2022-08-24T20:09:08;3.55;;;3.05;;
48873;SDS011;35220;46.204;5.220;2022-08-24T20:14:08;7.83;;;3.60;;
48873;SDS011;35220;46.204;5.220;2022-08-24T20:19:09;6.68;;;3.47;;
48873;SDS011;35220;46.204;5.220;2022-08-24T20:24:11;6.78;;;3.15;;
48873;SDS011;35220;46.204;5.220;2022-08-24T20:29:11;7.30;;;4.20;;
48873;SDS011;35220;46.204;5.220;2022-08-24T20:34:12;3.85;;;2.83;;
48873;SDS011;35220;46.204;5.220;2022-08-24T20:39:13;6.05;;;3.33;;
48873;SDS011;35220;46.204;5.220;2022-08-24T20:44:17;5.75;;;4.07;;
48873;SDS011;35220;46.204;5.220;2022-08-24T20:49:19;5.68;;;3.28;;
48873;SDS011;35220;46.204;5.220;2022-08-24T20:54:23;5.68;;;3.22;;
48873;SDS011;35220;46.204;5.220;2022-08-24T20:59:24;4.97;;;3.00;;
48873;SDS011;35220;46.204;5.220;2022-08-24T21:04:25;4.85;;;2.58;;
48873;SDS011;35220;46.204;5.220;2022-08-24T21:09:25;5.60;;;2.88;;
48873;SDS011;35220;46.204;5.220;2022-08-24T21:14:26;5.07;;;3.47;;
48873;SDS011;35220;46.204;5.220;2022-08-24T21:19:26;4.87;;;3.27;;
48873;SDS011;35220;46.204;5.220;2022-08-24T21:24:27;5.50;;;3.28;;
48873;SDS011;35220;46.204;5.220;2022-08-24T21:29:27;5.88;;;3.00;;
48873;SDS011;35220;46.204;5.220;2022-08-24T21:34:28;4.20;;;2.85;;
48873;SDS011;35220;46.204;5.220;2022-08-24T21:39:40;5.07;;;3.03;;
48873;SDS011;35220;46.204;5.220;2022-08-24T21:44:41;5.50;;;3.05;;
48873;SDS011;35220;46.204;5.220;2022-08-24T21:49:41;4.78;;;3.13;;
48873;SDS011;35220;46.204;5.220;2022-08-24T21:54:42;4.45;;;2.75;;
48873;SDS011;35220;46.204;5.220;2022-08-24T21:59:42;4.57;;;2.90;;
48873;SDS011;35220;46.204;5.220;2022-08-24T22:04:43;5.30;;;2.85;;
48873;SDS011;35220;46.204;5.220;2022-08-24T22:09:43;5.15;;;2.95;;
48873;SDS011;35220;46.204;5.220;2022-08-24T22:14:44;8.13;;;5.53;;
48873;SDS011;35220;46.204;5.220;2022-08-24T22:19:44;7.57;;;3.60;;
48873;SDS011;35220;46.204;5.220;2022-08-24T22:24:45;5.17;;;2.90;;
48873;SDS011;35220;46.204;5.220;2022-08-24T22:29:45;5.38;;;3.40;;
48873;SDS011;35220;46.204;5.220;2022-08-24T22:34:45;5.10;;;3.20;;
48873;SDS011;35220;46.204;5.220;2022-08-24T22:39:46;3.73;;;2.90;;
48873;SDS011;35220;46.204;5.220;2022-08-24T22:44:46;5.33;;;2.77;;
48873;SDS011;35220;46.204;5.220;2022-08-24T22:49:47;5.38;;;2.70;;
48873;SDS011;35220;46.204;5.220;2022-08-24T22:54:47;5.30;;;2.63;;
48873;SDS011;35220;46.204;5.220;2022-08-24T22:59:48;6.00;;;2.27;;
48873;SDS011;35220;46.204;5.220;2022-08-24T23:04:50;5.00;;;2.60;;
48873;SDS011;35220;46.204;5.220;2022-08-24T23:09:51;4.80;;;2.60;;
48873;SDS011;35220;46.204;5.220;2022-08-24T23:14:52;2.97;;;2.33;;
48873;SDS011;35220;46.204;5.220;2022-08-24T23:19:52;4.83;;;2.50;;
48873;SDS011;35220;46.204;5.220;2022-08-24T23:24:59;5.85;;;2.40;;
48873;SDS011;35220;46.204;5.220;2022-08-24T23:30:00;8.80;;;2.90;;
48873;SDS011;35220;46.204;5.220;2022-08-24T23:35:01;5.32;;;2.63;;
48873;SDS011;35220;46.204;5.220;2022-08-24T23:40:03;5.75;;;3.08;;
48873;SDS011;35220;46.204;5.220;2022-08-24T23:45:04;6.05;;;2.47;;
48873;SDS011;35220;46.204;5.220;2022-08-24T23:50:06;6.07;;;2.90;;
48873;SDS011;35220;46.204;5.220;2022-08-24T23:55:07;6.32;;;2.72;;
